createdAt,value
2023-05-05T00:03:58.270Z,6.10
2023-05-05T00:08:59.997Z,8.77
2023-05-05T00:14:01.898Z,8.77
2023-05-05T00:19:03.713Z,5.40
2023-05-05T00:24:05.785Z,6.60
2023-05-05T00:29:07.522Z,5.10
2023-05-05T00:34:09.251Z,6.37
2023-05-05T00:39:11.026Z,5.67
2023-05-05T00:44:12.932Z,11.07
2023-05-05T00:49:14.970Z,5.80
2023-05-05T00:54:17.270Z,6.70
2023-05-05T00:59:19.409Z,6.20
2023-05-05T01:04:21.338Z,5.23
2023-05-05T01:09:32.501Z,5.07
2023-05-05T01:14:39.948Z,7.90
2023-05-05T01:19:59.123Z,5.43
2023-05-05T01:25:07.263Z,5.13
2023-05-05T01:30:27.459Z,4.47
2023-05-05T01:35:31.813Z,7.13
2023-05-05T01:40:39.272Z,5.10
2023-05-05T01:45:42.811Z,6.10
2023-05-05T01:50:46.714Z,6.13
2023-05-05T01:55:49.923Z,6.07
2023-05-05T02:00:52.067Z,6.57
2023-05-05T02:05:54.731Z,5.80
2023-05-05T02:10:56.606Z,6.97
2023-05-05T02:15:58.939Z,5.77
2023-05-05T02:21:00.736Z,5.67
2023-05-05T02:26:08.206Z,10.93
2023-05-05T02:31:10.788Z,5.67
2023-05-05T02:36:20.715Z,5.90
2023-05-05T02:41:23.682Z,7.13
2023-05-05T02:46:26.042Z,6.17
2023-05-05T02:51:28.063Z,6.67
2023-05-05T02:56:42.543Z,5.23
2023-05-05T03:08:26.034Z,5.73
2023-05-05T03:13:28.573Z,5.77
2023-05-05T03:18:31.315Z,5.87
2023-05-05T03:23:33.193Z,5.37
2023-05-05T03:28:34.878Z,6.20
2023-05-05T03:33:36.541Z,6.47
2023-05-05T03:38:38.245Z,6.30
2023-05-05T03:43:39.924Z,7.03
2023-05-05T03:48:42.412Z,7.03
2023-05-05T03:53:44.083Z,8.57
2023-05-05T03:58:45.947Z,5.97
2023-05-05T04:03:47.983Z,6.17
2023-05-05T04:08:49.763Z,8.00
2023-05-05T04:13:51.473Z,6.30
2023-05-05T04:18:53.150Z,8.07
2023-05-05T04:23:54.904Z,7.37
2023-05-05T04:28:56.640Z,6.93
2023-05-05T04:33:58.525Z,8.63
2023-05-05T04:39:00.354Z,7.93
2023-05-05T04:44:02.173Z,9.87
2023-05-05T04:49:05.756Z,7.67
2023-05-05T04:54:07.538Z,9.20
2023-05-05T04:59:09.336Z,9.63
2023-05-05T05:04:11.126Z,7.63
2023-05-05T05:09:13.082Z,7.63
2023-05-05T05:14:14.948Z,8.73
2023-05-05T05:19:17.040Z,8.63
2023-05-05T05:24:18.862Z,14.10
2023-05-05T05:29:20.912Z,9.73
2023-05-05T05:34:22.723Z,8.43
2023-05-05T05:39:24.511Z,9.80
2023-05-05T05:44:26.342Z,9.93
2023-05-05T05:49:28.125Z,12.10
2023-05-05T05:54:29.853Z,10.83
2023-05-05T05:59:33.542Z,11.40
2023-05-05T06:04:35.411Z,12.83
2023-05-05T06:09:37.383Z,13.33
2023-05-05T06:14:39.230Z,12.07
2023-05-05T06:19:42.101Z,11.90
2023-05-05T06:24:45.107Z,15.57
2023-05-05T06:29:46.878Z,15.13
2023-05-05T06:34:49.032Z,13.90
2023-05-05T06:39:52.648Z,15.77
2023-05-05T06:44:54.497Z,15.50
2023-05-05T06:49:56.183Z,17.37
2023-05-05T06:54:57.881Z,15.70
2023-05-05T07:00:00.409Z,14.87
2023-05-05T07:05:02.304Z,14.83
2023-05-05T07:10:04.526Z,16.17
2023-05-05T07:15:19.194Z,15.77
2023-05-05T07:20:25.824Z,15.03
2023-05-05T07:25:27.573Z,15.73
2023-05-05T07:30:29.455Z,17.10
2023-05-05T07:35:31.306Z,16.40
2023-05-05T07:40:35.659Z,15.53
2023-05-05T07:45:38.809Z,15.13
2023-05-05T07:50:41.971Z,14.50
2023-05-05T07:55:43.837Z,15.47
2023-05-05T08:00:45.879Z,15.20
2023-05-05T08:05:48.617Z,13.63
2023-05-05T08:10:53.316Z,12.33
2023-05-05T08:15:56.435Z,12.47
2023-05-05T08:20:58.411Z,13.17
2023-05-05T08:26:02.555Z,10.63
2023-05-05T08:31:05.690Z,10.87
2023-05-05T08:36:08.906Z,10.77
2023-05-05T08:41:11.564Z,9.73
2023-05-05T08:46:13.498Z,9.93
2023-05-05T08:51:20.202Z,10.97
2023-05-05T08:56:22.626Z,7.87
2023-05-05T09:01:24.544Z,10.20
2023-05-05T09:06:27.528Z,7.80
2023-05-05T09:11:29.476Z,9.13
2023-05-05T09:16:31.448Z,8.47
2023-05-05T09:21:35.935Z,8.40
2023-05-05T09:26:44.005Z,9.77
2023-05-05T09:32:08.277Z,9.47
2023-05-05T09:37:10.603Z,8.60
2023-05-05T09:42:19.665Z,9.80
2023-05-05T09:47:29.638Z,9.02
2023-05-05T09:52:32.230Z,9.23
2023-05-05T09:57:36.874Z,7.53
2023-05-05T10:02:41.013Z,7.70
2023-05-05T10:07:45.722Z,7.90
2023-05-05T10:12:47.954Z,8.70
2023-05-05T10:22:59.061Z,9.20
2023-05-05T10:28:05.628Z,7.20
2023-05-05T10:33:31.798Z,7.90
2023-05-05T10:38:34.566Z,10.83
2023-05-05T10:43:36.773Z,8.00
2023-05-05T10:49:03.349Z,7.18
2023-05-05T10:54:25.138Z,7.60
2023-05-05T10:59:43.776Z,8.45
2023-05-05T11:05:07.148Z,7.45
2023-05-05T11:10:16.231Z,7.07
2023-05-05T11:15:30.305Z,5.47
2023-05-05T11:20:45.065Z,6.97
2023-05-05T11:25:48.471Z,6.23
2023-05-05T11:30:58.867Z,6.00
2023-05-05T11:36:16.372Z,8.57
2023-05-05T11:41:33.434Z,8.30
2023-05-05T11:46:43.899Z,6.23
2023-05-05T11:51:58.895Z,5.67
2023-05-05T11:57:06.813Z,5.43
2023-05-05T12:02:11.302Z,8.83
2023-05-05T12:07:24.447Z,5.93
2023-05-05T12:12:40.196Z,3.33
2023-05-05T12:17:47.179Z,3.70
2023-05-05T12:22:51.523Z,2.53
2023-05-05T12:27:53.655Z,3.20
2023-05-05T12:33:08.312Z,3.63
2023-05-05T12:38:12.759Z,3.03
2023-05-05T12:43:43.886Z,3.10
2023-05-05T12:48:48.348Z,3.57
2023-05-05T12:54:05.947Z,5.73
2023-05-05T12:59:09.047Z,4.73
2023-05-05T13:04:14.516Z,3.87
2023-05-05T13:09:24.288Z,9.17
2023-05-05T13:14:26.435Z,4.77
2023-05-05T13:19:28.768Z,5.07
2023-05-05T13:24:42.795Z,4.27
2023-05-05T13:29:52.338Z,5.47
2023-05-05T13:34:55.334Z,6.13
2023-05-05T13:40:01.295Z,11.00
2023-05-05T13:45:03.478Z,5.30
2023-05-05T13:50:06.231Z,8.47
2023-05-05T13:55:08.886Z,5.77
2023-05-05T14:00:11.841Z,5.30
2023-05-05T14:05:15.084Z,5.97
2023-05-05T14:10:19.671Z,7.57
2023-05-05T14:15:21.502Z,5.30
2023-05-05T14:20:25.355Z,11.70
2023-05-05T14:25:27.264Z,5.47
2023-05-05T14:30:30.295Z,3.47
2023-05-05T14:35:32.147Z,2.97
2023-05-05T14:40:39.493Z,2.57
2023-05-05T14:45:41.608Z,3.13
2023-05-05T14:50:46.249Z,3.57
2023-05-05T14:55:53.092Z,2.40
2023-05-05T15:00:57.585Z,4.70
2023-05-05T15:05:59.453Z,7.00
2023-05-05T15:11:01.632Z,9.87
2023-05-05T15:16:03.508Z,2.50
2023-05-05T15:21:05.707Z,5.00
2023-05-05T15:26:07.440Z,4.20
2023-05-05T15:31:09.237Z,6.00
2023-05-05T15:36:13.998Z,4.37
2023-05-05T15:41:15.818Z,6.33
2023-05-05T15:46:17.764Z,4.40
2023-05-05T15:51:22.519Z,6.93
2023-05-05T15:56:27.342Z,4.90
2023-05-05T16:01:29.220Z,3.63
2023-05-05T16:06:31.430Z,3.77
2023-05-05T16:11:37.422Z,2.60
2023-05-05T16:16:39.401Z,3.40
2023-05-05T16:28:10.440Z,2.60
2023-05-05T16:34:07.467Z,4.30
2023-05-05T16:39:29.467Z,2.17
2023-05-05T16:45:03.370Z,3.90
2023-05-05T16:50:05.766Z,3.33
2023-05-05T16:55:07.897Z,1.50
2023-05-05T17:00:10.291Z,2.03
2023-05-05T17:05:12.423Z,4.73
2023-05-05T17:10:15.055Z,4.53
2023-05-05T17:15:16.852Z,2.97
2023-05-05T17:25:44.977Z,3.43
2023-05-05T17:31:53.056Z,2.77
2023-05-05T17:43:05.628Z,3.77
2023-05-05T17:48:43.432Z,2.20
2023-05-05T17:54:38.813Z,3.33
2023-05-05T17:59:41.773Z,2.80
2023-05-05T18:05:24.752Z,3.30
2023-05-05T18:10:46.059Z,6.93
2023-05-05T18:15:57.765Z,3.73
2023-05-05T18:22:27.134Z,3.50
2023-05-05T18:27:01.321Z,2.70
2023-05-05T18:32:04.221Z,5.10
2023-05-05T18:37:06.248Z,2.57
2023-05-05T18:42:11.076Z,3.60
2023-05-05T19:05:32.589Z,3.13
2023-05-05T19:10:34.721Z,4.57
2023-05-05T19:15:37.575Z,3.80
2023-05-05T19:20:44.244Z,3.70
2023-05-05T19:25:51.932Z,5.90
2023-05-05T19:31:14.783Z,4.07
2023-05-05T19:36:16.655Z,4.27
2023-05-05T19:41:29.420Z,4.47
2023-05-05T19:46:41.083Z,4.37
2023-05-05T19:51:43.726Z,3.67
2023-05-05T19:56:48.707Z,5.27
2023-05-05T20:01:52.926Z,6.70
2023-05-05T20:06:56.521Z,25.67
2023-05-05T20:38:25.457Z,6.50
2023-05-05T20:57:16.806Z,5.43
2023-05-05T21:02:23.568Z,7.30
2023-05-05T21:07:25.511Z,9.13
2023-05-05T21:12:32.631Z,7.40
2023-05-05T21:17:34.556Z,8.33
2023-05-05T21:22:44.856Z,6.73
2023-05-05T21:27:54.917Z,7.07
2023-05-05T21:33:15.259Z,8.70
2023-05-05T21:38:22.890Z,6.87
2023-05-05T21:48:53.386Z,9.53
2023-05-05T21:54:15.012Z,9.83
2023-05-05T21:59:21.064Z,9.20
2023-05-05T22:04:23.034Z,9.90
2023-05-05T22:09:25.310Z,9.13
2023-05-05T22:14:27.056Z,10.83
2023-05-05T22:19:28.866Z,24.83
2023-05-05T22:24:30.605Z,19.57
2023-05-05T22:29:38.925Z,29.20
2023-05-05T22:34:42.982Z,22.40
2023-05-05T22:39:44.721Z,15.87
2023-05-05T22:44:46.396Z,12.13
2023-05-05T22:49:50.561Z,17.60
2023-05-05T22:54:52.382Z,16.77
2023-05-05T22:59:54.106Z,19.40
2023-05-05T23:04:55.791Z,14.77
2023-05-05T23:10:00.014Z,10.40
2023-05-05T23:15:05.318Z,9.93
2023-05-05T23:20:09.546Z,9.60
2023-05-05T23:25:11.562Z,9.30
2023-05-05T23:30:13.901Z,10.83
2023-05-05T23:35:15.936Z,10.27
2023-05-05T23:40:18.972Z,11.13
2023-05-05T23:45:20.766Z,11.23
2023-05-05T23:50:25.793Z,11.73
2023-05-05T23:55:27.570Z,11.37
